Time;durP1;ratioP1;P1;durP2;ratioP2;P2;SDS_P1;SDS_P2;PMS_P1;PMS_P2;Temp;Humidity;BMP_temperature;BMP_pressure;BME280_temperature;BME280_humidity;BME280_pressure;Samples;Min_cycle;Max_cycle;Signal;HPM_P1;HPM_P2
2021/11/24 00:00:53;;;;;;;41.87;20.47;;;;;;;6.39;94.14;101943.94;5027390;28;20590;-74
2021/11/24 00:03:22;;;;;;;40.90;19.67;;;;;;;6.38;93.84;101943.09;5027861;28;20714;-74
2021/11/24 00:05:49;;;;;;;42.97;19.73;;;;;;;6.38;93.89;101951.03;5041594;28;20252;-73
2021/11/24 00:08:15;;;;;;;46.07;20.47;;;;;;;6.38;93.97;101944.84;5029833;28;20203;-74
2021/11/24 00:10:42;;;;;;;46.10;21.13;;;;;;;6.37;93.96;101935.19;5030158;28;20577;-74
2021/11/24 00:13:08;;;;;;;48.13;21.83;;;;;;;6.35;93.91;101935.22;5030462;28;20233;-72
2021/11/24 00:15:35;;;;;;;49.07;21.37;;;;;;;6.35;93.39;101942.28;5033478;28;20216;-73
2021/11/24 00:18:02;;;;;;;48.03;21.90;;;;;;;6.36;93.46;101936.09;5026117;28;20217;-74
2021/11/24 00:20:30;;;;;;;49.43;23.20;;;;;;;6.34;93.86;101933.47;5022102;28;20657;-74
2021/11/24 00:22:57;;;;;;;49.07;22.60;;;;;;;6.33;93.68;101933.50;5023848;28;20226;-72
2021/11/24 00:25:24;;;;;;;48.10;19.90;;;;;;;6.33;93.59;101926.44;5027571;28;20237;-74
2021/11/24 00:27:50;;;;;;;46.47;21.67;;;;;;;6.32;93.56;101927.34;5044200;28;20214;-73
2021/11/24 00:30:17;;;;;;;42.87;20.57;;;;;;;6.31;93.75;101924.75;5030020;28;20692;-74
2021/11/24 00:32:44;;;;;;;45.27;20.43;;;;;;;6.28;93.41;101929.19;5034521;28;20230;-74
2021/11/24 00:35:10;;;;;;;47.87;22.13;;;;;;;6.27;93.42;101927.47;5035307;28;20217;-73
2021/11/24 00:37:38;;;;;;;46.17;19.40;;;;;;;6.26;93.49;101927.53;5031791;28;20209;-74
2021/11/24 00:40:07;;;;;;;52.63;21.43;;;;;;;6.26;93.51;101923.09;5037152;28;20205;-73
2021/11/24 00:42:34;;;;;;;46.77;21.03;;;;;;;6.24;93.78;101924.91;5031517;28;20230;-73
2021/11/24 00:45:01;;;;;;;47.83;21.47;;;;;;;6.24;93.50;101918.75;5027424;28;20210;-73
2021/11/24 00:47:28;;;;;;;45.77;20.70;;;;;;;6.24;93.40;101922.28;5030614;28;20226;-74
2021/11/24 00:49:54;;;;;;;48.13;21.23;;;;;;;6.23;93.57;101923.19;5030439;28;20214;-73
2021/11/24 00:52:21;;;;;;;48.07;21.50;;;;;;;6.24;93.73;101919.63;5034873;28;20255;-73
2021/11/24 00:54:49;;;;;;;51.37;21.17;;;;;;;6.24;93.99;101918.75;5024792;28;20297;-74
2021/11/24 00:57:15;;;;;;;52.17;21.70;;;;;;;6.24;93.53;101922.28;5031142;28;20199;-74
2021/11/24 00:59:42;;;;;;;45.33;20.17;;;;;;;6.24;93.71;101916.97;5041378;28;20214;-73
2021/11/24 01:02:09;;;;;;;51.80;21.17;;;;;;;6.24;93.55;101922.28;5027637;28;20222;-73
2021/11/24 01:04:35;;;;;;;49.40;21.17;;;;;;;6.23;93.76;101917.88;5032204;28;20206;-73
2021/11/24 01:07:02;;;;;;;46.07;20.43;;;;;;;6.24;94.06;101909.03;5045413;28;20729;-74
2021/11/24 01:09:28;;;;;;;43.67;19.97;;;;;;;6.25;93.90;101908.13;5035913;28;20203;-72
2021/11/24 01:11:56;;;;;;;51.57;21.47;;;;;;;6.25;93.51;101910.78;5039657;28;20212;-73
2021/11/24 01:14:23;;;;;;;50.23;21.10;;;;;;;6.25;93.79;101916.06;5039905;28;20213;-73
2021/11/24 01:16:50;;;;;;;49.13;21.33;;;;;;;6.25;93.84;101916.06;5033202;28;20685;-74
2021/11/24 01:19:17;;;;;;;52.23;22.57;;;;;;;6.26;93.77;101912.53;5029459;28;20202;-74
2021/11/24 01:21:44;;;;;;;49.13;21.37;;;;;;;6.27;94.42;101913.34;5029679;28;20211;-73
2021/11/24 01:24:10;;;;;;;44.23;20.03;;;;;;;6.26;94.04;101915.16;5027123;28;20226;-74
2021/11/24 01:26:37;;;;;;;48.20;21.23;;;;;;;6.26;94.19;101917.81;5026444;28;20607;-74
2021/11/24 01:29:05;;;;;;;51.97;22.80;;;;;;;6.25;94.15;101916.06;5039811;28;20244;-73
2021/11/24 01:31:32;;;;;;;46.70;19.97;;;;;;;6.26;94.27;101916.94;5018263;28;20206;-73
2021/11/24 01:33:59;;;;;;;46.03;19.93;;;;;;;6.26;93.97;101906.38;5030205;28;20230;-73
2021/11/24 01:36:26;;;;;;;48.03;19.70;;;;;;;6.26;94.25;101911.66;5027960;28;20581;-74
2021/11/24 01:38:53;;;;;;;48.90;21.77;;;;;;;6.28;94.31;101915.09;5031458;28;20694;-74
2021/11/24 01:41:20;;;;;;;44.70;20.53;;;;;;;6.26;94.04;101907.22;5027830;28;20202;-72
2021/11/24 01:43:46;;;;;;;44.50;18.67;;;;;;;6.26;94.33;101912.53;5030275;28;20222;-73
2021/11/24 01:46:14;;;;;;;47.23;20.17;;;;;;;6.27;94.02;101905.41;5031298;28;20234;-73
2021/11/24 01:48:41;;;;;;;46.17;19.30;;;;;;;6.27;94.39;101900.13;5029419;28;20202;-73
2021/11/24 01:51:07;;;;;;;40.40;18.63;;;;;;;6.25;94.40;101888.75;5026089;28;20549;-73
2021/11/24 01:53:34;;;;;;;42.83;18.47;;;;;;;6.26;94.01;101883.41;5029888;28;20241;-74
2021/11/24 01:56:01;;;;;;;45.20;18.53;;;;;;;6.26;94.12;101883.41;5026637;28;20203;-74
2021/11/24 01:58:28;;;;;;;39.73;19.20;;;;;;;6.27;94.41;101878.97;5018600;28;20276;-73
2021/11/24 02:00:55;;;;;;;43.20;18.40;;;;;;;6.27;94.07;101876.31;5026952;28;20217;-74
2021/11/24 02:03:23;;;;;;;35.30;16.60;;;;;;;6.27;94.12;101871.03;5023283;28;20236;-74
2021/11/24 02:05:49;;;;;;;41.67;18.60;;;;;;;6.26;93.99;101864.91;5020855;28;20205;-74
2021/11/24 02:08:16;;;;;;;38.23;17.67;;;;;;;6.27;94.14;101877.19;5022959;28;20214;-74
2021/11/24 02:10:42;;;;;;;38.50;17.37;;;;;;;6.27;94.38;101866.59;5031223;28;20238;-74
2021/11/24 02:13:09;;;;;;;36.97;16.63;;;;;;;6.28;93.88;101864.84;5026648;28;20221;-74
2021/11/24 02:15:36;;;;;;;31.50;16.47;;;;;;;6.28;94.22;101856.91;5028645;28;20218;-74
2021/11/24 02:18:06;;;;;;;39.63;17.17;;;;;;;6.27;94.39;101855.16;5030456;28;20211;-74
2021/11/24 02:20:39;;;;;;;36.07;15.07;;;;;;;6.28;94.01;101852.47;5020754;28;20217;-74
2021/11/24 02:23:07;;;;;;;33.10;15.03;;;;;;;6.27;93.85;101844.56;5030447;28;20226;-73
2021/11/24 02:25:35;;;;;;;30.73;15.73;;;;;;;6.27;94.41;101842.78;5028418;28;20695;-74
2021/11/24 02:28:02;;;;;;;28.50;14.57;;;;;;;6.28;93.89;101851.59;5015272;28;20230;-74
2021/11/24 02:30:29;;;;;;;27.47;14.10;;;;;;;6.27;93.92;101845.44;5029877;28;20208;-73
2021/11/24 02:32:56;;;;;;;29.90;14.20;;;;;;;6.27;93.78;101845.44;5020249;28;20230;-74
2021/11/24 02:35:22;;;;;;;26.00;13.10;;;;;;;6.27;94.44;101841.94;5030157;28;20214;-74
2021/11/24 02:37:50;;;;;;;27.63;13.80;;;;;;;6.28;94.01;101833.09;5022910;28;20212;-74
2021/11/24 02:40:17;;;;;;;26.53;14.30;;;;;;;6.27;94.23;101840.16;5029949;28;20214;-74
2021/11/24 02:42:43;;;;;;;25.87;12.80;;;;;;;6.28;94.06;101831.31;5024367;28;20715;-74
2021/11/24 02:45:10;;;;;;;27.03;13.33;;;;;;;6.26;94.28;101833.16;5030310;28;20562;-74
2021/11/24 02:47:37;;;;;;;22.07;11.77;;;;;;;6.27;94.28;101834.00;5030442;28;20230;-73
2021/11/24 02:50:06;;;;;;;23.73;12.03;;;;;;;6.27;94.14;101831.34;5028824;28;20213;-73
2021/11/24 02:52:33;;;;;;;22.10;12.10;;;;;;;6.26;93.92;101824.34;5029420;28;20256;-74
2021/11/24 02:55:03;;;;;;;27.03;12.63;;;;;;;6.27;94.24;101819.00;5031128;28;20209;-73
2021/11/24 02:57:31;;;;;;;28.30;13.57;;;;;;;6.27;94.28;101823.41;5013702;28;20209;-73
2021/11/24 02:59:58;;;;;;;29.97;13.40;;;;;;;6.26;94.10;101827.00;5036415;28;20206;-74
2021/11/24 03:02:26;;;;;;;25.13;12.37;;;;;;;6.26;93.95;101817.28;5031420;28;20245;-74
2021/11/24 03:04:54;;;;;;;26.63;13.53;;;;;;;6.26;93.96;101822.56;5039463;28;20213;-74
2021/11/24 03:07:20;;;;;;;30.30;14.70;;;;;;;6.26;94.32;101819.94;5026310;28;20223;-71
2021/11/24 03:09:47;;;;;;;29.37;13.83;;;;;;;6.27;93.87;101823.41;5041889;28;20205;-73
2021/11/24 03:12:15;;;;;;;32.17;14.00;;;;;;;6.26;93.95;101821.69;5052948;28;20236;-74
2021/11/24 03:14:42;;;;;;;30.30;15.17;;;;;;;6.26;93.94;101813.75;5033760;28;20206;-73
2021/11/24 03:17:08;;;;;;;32.00;13.87;;;;;;;6.25;93.88;101812.91;5033001;28;20215;-74
2021/11/24 03:19:35;;;;;;;29.03;14.60;;;;;;;6.26;93.66;101819.06;5030783;28;20213;-73
2021/11/24 03:22:01;;;;;;;27.53;14.37;;;;;;;6.26;93.88;101816.41;5039022;28;20210;-73
2021/11/24 03:24:28;;;;;;;30.70;14.50;;;;;;;6.26;93.33;101814.63;5052741;28;20213;-74
2021/11/24 03:26:54;;;;;;;31.60;14.27;;;;;;;6.26;93.53;101816.41;5022203;28;20241;-74
2021/11/24 03:29:23;;;;;;;32.40;14.73;;;;;;;6.25;93.84;101812.91;5032653;28;20581;-74
2021/11/24 03:31:49;;;;;;;31.57;15.70;;;;;;;6.26;93.78;101816.41;5039940;28;20242;-74
2021/11/24 03:34:16;;;;;;;34.03;14.97;;;;;;;6.25;94.04;101812.91;5033423;28;20217;-72
2021/11/24 03:36:43;;;;;;;28.37;14.43;;;;;;;6.26;94.14;101813.75;5027507;28;20195;-74
2021/11/24 03:39:09;;;;;;;27.70;14.87;;;;;;;6.24;93.85;101813.81;5032972;28;20246;-73
2021/11/24 03:41:36;;;;;;;31.50;14.93;;;;;;;6.25;93.80;101809.38;5032090;28;20213;-74
2021/11/24 03:44:03;;;;;;;34.80;14.70;;;;;;;6.25;93.50;101809.38;5034541;28;20222;-73
2021/11/24 03:46:31;;;;;;;30.17;14.83;;;;;;;6.25;93.34;101804.97;5032085;28;20230;-74
2021/11/24 03:48:57;;;;;;;31.13;16.20;;;;;;;6.24;93.73;101797.94;5029147;28;21821;-73
2021/11/24 03:51:24;;;;;;;28.47;14.40;;;;;;;6.24;93.72;101787.34;5031419;28;20210;-74
2021/11/24 03:53:51;;;;;;;28.37;14.63;;;;;;;6.25;93.47;101794.38;5071138;22;20238;-71
2021/11/24 03:56:18;;;;;;;35.70;14.23;;;;;;;6.25;93.44;101789.09;5051573;28;20206;-72
2021/11/24 03:58:45;;;;;;;29.77;14.43;;;;;;;6.24;93.57;101782.06;5060213;28;20205;-71
2021/11/24 04:01:12;;;;;;;27.63;13.60;;;;;;;6.25;93.36;101789.09;5057733;28;20674;-72
2021/11/24 04:03:40;;;;;;;30.70;13.53;;;;;;;6.25;93.74;101786.44;5038735;28;20247;-72
2021/11/24 04:06:07;;;;;;;25.80;13.53;;;;;;;6.24;93.29;101784.72;5012979;28;20210;-72
2021/11/24 04:08:34;;;;;;;26.47;13.33;;;;;;;6.25;93.39;101775.88;5036455;28;20248;-73
2021/11/24 04:11:00;;;;;;;23.00;12.70;;;;;;;6.25;93.15;101781.16;5047317;28;20205;-72
2021/11/24 04:13:27;;;;;;;23.50;12.80;;;;;;;6.24;93.46;101782.06;5033109;28;20230;-73
2021/11/24 04:15:53;;;;;;;25.30;12.63;;;;;;;6.25;93.38;101780.28;5051944;28;20213;-73
2021/11/24 04:18:20;;;;;;;23.70;12.73;;;;;;;6.25;92.89;101778.50;5045979;28;20255;-72
2021/11/24 04:20:48;;;;;;;25.90;13.37;;;;;;;6.25;92.89;101775.88;5038565;28;20216;-72
2021/11/24 04:23:15;;;;;;;26.03;13.70;;;;;;;6.25;92.82;101783.81;5025291;28;20744;-72
2021/11/24 04:25:41;;;;;;;21.13;12.30;;;;;;;6.26;93.00;101780.25;5021840;28;20218;-72
2021/11/24 04:28:08;;;;;;;25.50;13.13;;;;;;;6.26;92.91;101769.66;5035609;28;20225;-72
2021/11/24 04:30:34;;;;;;;20.63;12.20;;;;;;;6.27;92.78;101770.50;5020761;28;20209;-72
2021/11/24 04:33:01;;;;;;;22.77;12.87;;;;;;;6.27;92.57;101766.06;5022129;28;20221;-72
2021/11/24 04:35:27;;;;;;;26.47;12.43;;;;;;;6.27;92.80;101766.06;5046712;28;20205;-72
2021/11/24 04:37:56;;;;;;;25.57;13.67;;;;;;;6.27;92.85;101776.66;5042582;28;20561;-72
2021/11/24 04:40:22;;;;;;;23.93;13.13;;;;;;;6.26;92.71;101767.00;5051684;28;20214;-73
2021/11/24 04:42:51;;;;;;;29.20;13.97;;;;;;;6.27;92.64;101767.84;5033666;28;20229;-72
2021/11/24 04:45:17;;;;;;;22.70;13.57;;;;;;;6.26;92.48;101774.94;5048921;28;20244;-72
2021/11/24 04:47:45;;;;;;;22.23;12.77;;;;;;;6.26;92.56;101769.66;5032454;28;20335;-72
2021/11/24 04:50:12;;;;;;;24.17;13.03;;;;;;;6.27;92.25;101776.66;5031135;28;20561;-72
2021/11/24 04:52:39;;;;;;;27.73;13.40;;;;;;;6.27;92.22;101765.22;5027882;28;20528;-72
2021/11/24 04:55:09;;;;;;;26.13;13.40;;;;;;;6.26;92.69;101756.44;5050883;28;20252;-72
2021/11/24 04:57:36;;;;;;;23.87;13.93;;;;;;;6.27;92.42;101755.50;5026416;28;20671;-73
2021/11/24 05:00:06;;;;;;;20.67;12.90;;;;;;;6.28;92.30;101756.38;5041189;28;20663;-72
2021/11/24 05:02:32;;;;;;;24.13;12.20;;;;;;;6.27;92.59;101755.50;5024634;28;20202;-73
2021/11/24 05:04:59;;;;;;;20.83;12.20;;;;;;;6.28;92.10;101757.22;5033686;28;20206;-72
2021/11/24 05:07:25;;;;;;;23.50;11.27;;;;;;;6.28;92.10;101756.38;5025374;28;20222;-72
2021/11/24 05:09:52;;;;;;;23.47;12.17;;;;;;;6.27;92.08;101746.69;5031875;28;20241;-73
2021/11/24 05:12:20;;;;;;;21.60;11.07;;;;;;;6.28;91.89;101753.72;5037414;28;20749;-71
2021/11/24 05:14:49;;;;;;;22.40;13.07;;;;;;;6.27;92.14;101749.34;5020321;28;20579;-73
2021/11/24 05:17:18;;;;;;;21.53;11.77;;;;;;;6.28;91.65;101754.59;5026281;28;20194;-73
2021/11/24 05:19:47;;;;;;;22.07;11.93;;;;;;;6.29;91.94;101758.09;5021798;28;20216;-71
2021/11/24 05:22:14;;;;;;;24.67;12.27;;;;;;;6.30;91.83;101761.63;5032175;28;20217;-72
2021/11/24 05:24:41;;;;;;;21.07;11.43;;;;;;;6.31;91.63;101755.41;5026545;28;20503;-72
2021/11/24 05:27:08;;;;;;;27.77;12.77;;;;;;;6.31;91.96;101755.41;5025746;28;20229;-72
2021/11/24 05:29:35;;;;;;;23.23;12.50;;;;;;;6.32;91.47;101759.78;5029221;28;20217;-73
2021/11/24 05:32:02;;;;;;;22.23;12.43;;;;;;;6.29;91.93;101747.50;5015881;28;20211;-71
2021/11/24 05:34:30;;;;;;;20.20;11.93;;;;;;;6.31;91.50;101748.34;5027490;28;20245;-70
2021/11/24 05:36:56;;;;;;;20.80;12.27;;;;;;;6.32;91.98;101757.16;5028931;28;20205;-73
2021/11/24 05:39:23;;;;;;;21.17;11.53;;;;;;;6.32;91.42;101755.38;5031756;28;20199;-73
2021/11/24 05:41:49;;;;;;;23.93;12.10;;;;;;;6.32;91.51;101751.84;5017480;28;20206;-72
2021/11/24 05:44:20;;;;;;;22.63;12.17;;;;;;;6.34;91.45;101752.69;5023706;28;20228;-74
2021/11/24 05:46:53;;;;;;;22.80;12.33;;;;;;;6.32;91.39;101746.56;5023206;28;20203;-70
2021/11/24 05:49:20;;;;;;;24.97;13.30;;;;;;;6.31;91.18;101751.00;5014941;28;20207;-72
2021/11/24 05:51:47;;;;;;;20.40;12.13;;;;;;;6.31;91.02;101752.78;5016079;28;20206;-69
2021/11/24 05:54:13;;;;;;;22.90;12.40;;;;;;;6.30;91.03;101748.38;5019241;28;20239;-69
2021/11/24 05:56:40;;;;;;;21.17;12.63;;;;;;;6.30;91.34;101751.03;5025573;28;20675;-69
2021/11/24 05:59:08;;;;;;;22.37;11.97;;;;;;;6.29;91.07;101747.50;5017388;28;20207;-69
2021/11/24 06:01:35;;;;;;;23.40;12.23;;;;;;;6.29;90.71;101747.50;5021863;28;20667;-70
2021/11/24 06:04:04;;;;;;;22.97;12.37;;;;;;;6.28;90.68;101744.00;5016233;28;20230;-70
2021/11/24 06:06:31;;;;;;;21.60;11.67;;;;;;;6.28;90.98;101741.34;5020038;28;20229;-71
2021/11/24 06:08:58;;;;;;;23.80;11.90;;;;;;;6.28;90.93;101736.06;5037268;28;20229;-72
2021/11/24 06:11:25;;;;;;;19.47;11.73;;;;;;;6.28;90.59;101736.06;5019235;28;20203;-72
2021/11/24 06:13:52;;;;;;;26.60;13.40;;;;;;;6.27;90.44;101739.63;5020555;28;20222;-73
2021/11/24 06:16:20;;;;;;;23.70;12.37;;;;;;;6.27;90.46;101734.31;5023522;28;20577;-71
2021/11/24 06:18:47;;;;;;;23.73;12.20;;;;;;;6.27;90.37;101733.47;5016578;28;20203;-70
2021/11/24 06:21:15;;;;;;;24.63;12.73;;;;;;;6.26;90.33;101735.28;5025941;28;20199;-71
2021/11/24 06:23:42;;;;;;;23.90;12.30;;;;;;;6.26;90.43;101732.63;5022142;28;20582;-71
2021/11/24 06:26:09;;;;;;;27.57;13.63;;;;;;;6.24;90.33;101723.88;5022214;28;20221;-70
2021/11/24 06:28:37;;;;;;;25.63;12.47;;;;;;;6.24;90.52;101733.56;5023660;28;20273;-71
2021/11/24 06:31:04;;;;;;;28.47;14.17;;;;;;;6.23;90.40;101727.41;5020150;28;20688;-70
2021/11/24 06:33:31;;;;;;;24.03;13.17;;;;;;;6.22;90.32;101724.81;5025755;28;20226;-72
2021/11/24 06:35:57;;;;;;;23.70;13.17;;;;;;;6.22;89.97;101735.41;5042732;28;20591;-73
2021/11/24 06:38:25;;;;;;;27.37;13.53;;;;;;;6.21;90.43;101723.94;5051078;28;20213;-73
2021/11/24 06:40:52;;;;;;;25.37;14.20;;;;;;;6.22;90.04;101728.31;5026160;28;20686;-73
2021/11/24 06:43:18;;;;;;;26.33;13.93;;;;;;;6.23;89.93;101727.41;5053739;28;20229;-72
2021/11/24 06:45:45;;;;;;;27.97;13.63;;;;;;;6.22;89.86;101720.38;5054072;28;20239;-72
2021/11/24 06:48:11;;;;;;;27.07;14.47;;;;;;;6.23;89.81;101727.41;5053136;28;20247;-73
2021/11/24 06:50:38;;;;;;;25.93;13.90;;;;;;;6.24;89.88;101725.63;5054275;28;20217;-72
2021/11/24 06:53:05;;;;;;;26.93;14.70;;;;;;;6.24;90.01;101726.50;5053004;28;20328;-73
2021/11/24 06:55:33;;;;;;;26.33;14.20;;;;;;;6.24;89.78;101726.50;5054093;28;20209;-72
2021/11/24 06:57:59;;;;;;;31.80;15.13;;;;;;;6.24;89.92;101721.22;5053342;28;20685;-72
2021/11/24 07:00:26;;;;;;;26.87;13.53;;;;;;;6.22;89.78;101723.03;5053750;28;20210;-72
2021/11/24 07:02:54;;;;;;;29.50;14.80;;;;;;;6.24;89.96;101726.50;5052705;28;20315;-71
2021/11/24 07:05:20;;;;;;;28.17;14.10;;;;;;;6.25;89.74;101730.88;5053531;28;20217;-72
2021/11/24 07:07:47;;;;;;;25.20;13.30;;;;;;;6.26;89.70;101729.97;5053753;28;20237;-72
2021/11/24 07:10:13;;;;;;;25.37;13.10;;;;;;;6.27;89.95;101734.31;5052799;28;20217;-73
2021/11/24 07:12:41;;;;;;;25.87;13.87;;;;;;;6.27;89.99;101733.47;5053279;28;20218;-73
2021/11/24 07:15:09;;;;;;;27.67;13.43;;;;;;;6.27;89.55;101731.69;5052939;28;20209;-72
2021/11/24 07:17:35;;;;;;;27.87;14.13;;;;;;;6.28;89.87;101729.91;5052906;28;20206;-73
2021/11/24 07:20:03;;;;;;;23.63;13.00;;;;;;;6.28;89.98;101727.25;5053591;28;20210;-73
2021/11/24 07:22:30;;;;;;;27.13;13.70;;;;;;;6.30;90.03;101729.88;5052782;28;20284;-72
2021/11/24 07:24:56;;;;;;;25.60;12.87;;;;;;;6.30;90.06;101721.94;5053497;28;20205;-72
2021/11/24 07:27:23;;;;;;;24.03;13.20;;;;;;;6.30;89.45;101721.94;5052434;28;20216;-72
2021/11/24 07:29:51;;;;;;;27.57;12.97;;;;;;;6.31;89.62;101727.19;5053495;28;20218;-72
2021/11/24 07:32:18;;;;;;;24.97;12.50;;;;;;;6.29;89.54;101721.06;5051953;28;20213;-71
2021/11/24 07:34:44;;;;;;;23.80;12.77;;;;;;;6.29;89.85;101715.78;5052971;28;20586;-73
2021/11/24 07:37:11;;;;;;;22.67;13.20;;;;;;;6.29;89.29;101710.47;5053373;28;20212;-72
2021/11/24 07:39:37;;;;;;;21.57;11.53;;;;;;;6.30;89.63;101716.63;5041227;28;20206;-72
2021/11/24 07:42:05;;;;;;;20.10;10.57;;;;;;;6.29;89.61;101715.78;5034958;28;20245;-74
2021/11/24 07:44:31;;;;;;;19.33;10.63;;;;;;;6.30;89.16;101727.22;5052132;28;20233;-72
2021/11/24 07:46:59;;;;;;;19.20;10.73;;;;;;;6.30;89.40;101724.56;5052900;28;20213;-72
2021/11/24 07:49:25;;;;;;;20.30;11.20;;;;;;;6.32;89.78;101725.41;5052259;28;20710;-72
2021/11/24 07:51:52;;;;;;;21.70;11.10;;;;;;;6.33;89.71;101727.13;5052220;28;20221;-72
2021/11/24 07:54:19;;;;;;;17.27;9.83;;;;;;;6.34;89.57;101720.94;5052307;28;20629;-73
2021/11/24 07:56:45;;;;;;;19.57;11.50;;;;;;;6.34;89.25;101710.34;5048465;28;20214;-72
2021/11/24 07:59:12;;;;;;;20.27;11.43;;;;;;;6.35;89.43;101714.75;5043119;28;20293;-73
2021/11/24 08:01:38;;;;;;;19.00;9.90;;;;;;;6.35;89.04;101712.09;5051773;28;20234;-72
2021/11/24 08:04:06;;;;;;;17.97;10.80;;;;;;;6.36;89.25;101705.88;5040417;28;20241;-73
2021/11/24 08:06:33;;;;;;;18.20;9.97;;;;;;;6.36;88.71;101714.69;5052078;28;20585;-72
2021/11/24 08:08:59;;;;;;;16.80;9.67;;;;;;;6.36;88.76;101709.41;5051731;28;20232;-72
2021/11/24 08:11:26;;;;;;;17.43;10.23;;;;;;;6.38;89.00;101709.38;5052518;28;20213;-73
2021/11/24 08:13:52;;;;;;;15.67;9.03;;;;;;;6.39;88.62;101706.66;5051704;28;20321;-72
2021/11/24 08:16:19;;;;;;;23.13;11.07;;;;;;;6.39;88.61;101708.44;5047254;28;20667;-71
2021/11/24 08:18:45;;;;;;;17.37;10.27;;;;;;;6.40;88.94;101691.66;5051878;28;20201;-71
2021/11/24 08:21:13;;;;;;;17.53;10.33;;;;;;;6.40;89.05;101689.88;5051668;28;20697;-71
2021/11/24 08:23:40;;;;;;;18.50;9.47;;;;;;;6.41;88.93;101696.03;5051568;28;20248;-71
2021/11/24 08:26:06;;;;;;;18.77;8.87;;;;;;;6.40;88.89;101692.53;5051424;28;20213;-71
2021/11/24 08:28:33;;;;;;;17.97;9.60;;;;;;;6.43;88.46;101687.16;5051832;28;20229;-71
2021/11/24 08:31:00;;;;;;;19.70;9.97;;;;;;;6.43;88.67;101681.88;5051668;28;20744;-71
2021/11/24 08:33:26;;;;;;;21.13;10.60;;;;;;;6.44;88.79;101682.72;5051215;28;20698;-71
2021/11/24 08:35:53;;;;;;;16.57;9.63;;;;;;;6.46;88.38;101678.22;5043606;28;20667;-71
2021/11/24 08:38:21;;;;;;;14.07;8.30;;;;;;;6.48;88.92;101673.75;5051754;28;20213;-72
2021/11/24 08:40:48;;;;;;;16.77;7.80;;;;;;;6.48;88.86;101673.75;5023233;28;20741;-70
2021/11/24 08:43:14;;;;;;;12.50;7.13;;;;;;;6.50;88.61;101671.94;5051787;28;20226;-71
2021/11/24 08:45:41;;;;;;;13.03;7.53;;;;;;;6.51;88.76;101669.25;5051855;28;20213;-71
2021/11/24 08:48:08;;;;;;;10.63;6.50;;;;;;;6.54;88.93;101671.81;5051539;28;20233;-71
2021/11/24 08:50:35;;;;;;;12.67;6.77;;;;;;;6.56;88.78;101666.47;5051988;28;20218;-70
2021/11/24 08:53:02;;;;;;;11.97;6.63;;;;;;;6.58;88.36;101662.88;5050583;28;20256;-71
2021/11/24 08:55:29;;;;;;;11.37;7.47;;;;;;;6.60;88.38;101668.13;5033834;28;20290;-70
2021/11/24 08:57:56;;;;;;;13.97;7.00;;;;;;;6.62;88.63;101674.22;5041882;28;20674;-71
2021/11/24 09:00:24;;;;;;;14.50;7.43;;;;;;;6.64;88.18;101661.78;5051642;28;20209;-69
2021/11/24 09:02:51;;;;;;;13.23;7.77;;;;;;;6.67;88.41;101667.00;5050286;28;20233;-71
2021/11/24 09:05:18;;;;;;;12.47;6.97;;;;;;;6.68;87.81;101657.28;5050919;28;20209;-71
2021/11/24 09:07:46;;;;;;;12.23;7.03;;;;;;;6.70;87.89;101653.66;5039774;28;20214;-70
2021/11/24 09:10:13;;;;;;;9.50;6.07;;;;;;;6.73;88.65;101650.94;5049497;28;20210;-71
2021/11/24 09:12:42;;;;;;;9.10;5.83;;;;;;;6.75;87.79;101646.47;5051051;28;20224;-74
2021/11/24 09:15:09;;;;;;;11.00;5.33;;;;;;;6.79;88.03;101650.75;5050588;28;20574;-71
2021/11/24 09:17:36;;;;;;;10.17;6.23;;;;;;;6.82;87.92;101642.69;5051524;28;20215;-72
2021/11/24 09:20:03;;;;;;;11.33;6.40;;;;;;;6.84;87.58;101646.16;5050002;28;20207;-72
2021/11/24 09:22:30;;;;;;;12.77;7.20;;;;;;;6.88;87.47;101650.44;5050241;28;20216;-72
2021/11/24 09:24:57;;;;;;;15.13;7.40;;;;;;;6.91;87.71;101650.34;5014189;28;20213;-72
2021/11/24 09:27:30;;;;;;;16.57;9.00;;;;;;;6.95;86.93;101659.94;5019274;28;20205;-72
2021/11/24 09:29:59;;;;;;;12.50;7.23;;;;;;;6.97;87.56;101652.81;5039332;28;20233;-73
2021/11/24 09:32:27;;;;;;;11.27;6.47;;;;;;;7.00;87.49;101641.22;5034765;28;20210;-71
2021/11/24 09:34:53;;;;;;;10.13;5.90;;;;;;;7.02;86.85;101649.13;5039321;28;20687;-73
2021/11/24 09:37:20;;;;;;;9.87;5.73;;;;;;;7.04;86.59;101640.22;5037263;28;20209;-72
2021/11/24 09:39:47;;;;;;;8.87;5.60;;;;;;;7.07;86.63;101636.59;5050473;28;20205;-72
2021/11/24 09:42:15;;;;;;;9.27;5.53;;;;;;;7.10;87.03;101636.50;5021954;28;20212;-72
2021/11/24 09:44:46;;;;;;;8.70;5.37;;;;;;;7.14;86.42;101630.19;5049668;28;20753;-73
2021/11/24 09:47:15;;;;;;;8.90;5.60;;;;;;;7.17;86.38;101638.00;5050112;28;20209;-74
2021/11/24 09:49:46;;;;;;;10.70;6.17;;;;;;;7.19;86.00;101638.81;5050680;28;20343;-73
2021/11/24 09:52:12;;;;;;;10.73;5.83;;;;;;;7.23;85.95;101637.81;5049854;28;20209;-73
2021/11/24 09:54:40;;;;;;;10.90;5.53;;;;;;;7.26;86.07;101640.38;5074378;22;20232;-72
2021/11/24 09:57:07;;;;;;;8.33;5.30;;;;;;;7.29;85.62;101638.47;5050109;28;20229;-72
2021/11/24 09:59:34;;;;;;;11.77;6.20;;;;;;;7.33;86.08;101641.91;5050866;28;20588;-72
2021/11/24 10:02:01;;;;;;;10.63;6.13;;;;;;;7.35;85.49;101624.13;5050751;28;20713;-72
2021/11/24 10:04:30;;;;;;;19.57;12.23;;;;;;;7.38;85.66;101618.75;5049837;28;20257;-72
2021/11/24 10:06:57;;;;;;;46.43;30.37;;;;;;;7.40;85.15;101616.91;5050569;28;20214;-72
2021/11/24 10:09:24;;;;;;;13.87;9.73;;;;;;;7.43;85.15;101611.50;5049817;28;20229;-72
2021/11/24 10:11:50;;;;;;;9.20;6.70;;;;;;;7.45;85.42;101609.66;5032037;28;20237;-73
2021/11/24 10:14:17;;;;;;;6.73;4.17;;;;;;;7.46;84.65;101606.09;5015817;28;20231;-72
2021/11/24 10:16:44;;;;;;;18.60;12.47;;;;;;;7.45;84.93;101601.72;5050047;28;20213;-72
2021/11/24 10:19:12;;;;;;;25.13;18.43;;;;;;;7.44;83.88;101599.13;5050635;28;20232;-72
2021/11/24 10:21:56;;;;;;;20.83;14.27;;;;;;;7.46;84.56;101600.78;5043645;28;20750;-72
2021/11/24 10:24:29;;;;;;;15.47;13.33;;;;;;;7.49;84.35;101603.34;5049504;28;20723;-72
2021/11/24 10:26:55;;;;;;;9.33;6.53;;;;;;;7.51;83.35;101603.28;5050087;28;20210;-72
2021/11/24 10:29:22;;;;;;;9.13;8.20;;;;;;;7.53;83.78;101599.63;5050191;28;20732;-72
2021/11/24 10:31:52;;;;;;;12.43;11.03;;;;;;;7.55;83.13;101592.50;5044563;28;20202;-72
2021/11/24 10:34:21;;;;;;;9.60;5.93;;;;;;;7.57;82.82;101590.66;5040854;28;20230;-72
2021/11/24 10:37:05;;;;;;;8.83;6.30;;;;;;;7.60;82.62;101587.03;5049460;28;20292;-72
2021/11/24 10:39:34;;;;;;;11.43;5.23;;;;;;;7.62;82.52;101586.06;5049741;28;20663;-71
2021/11/24 10:42:10;;;;;;;8.43;5.70;;;;;;;7.69;82.64;101583.22;5049526;28;20217;-71
2021/11/24 10:44:37;;;;;;;6.27;4.67;;;;;;;7.74;82.82;101575.94;5032353;28;20221;-70
2021/11/24 10:47:07;;;;;;;8.00;4.40;;;;;;;7.76;82.18;101568.78;5017208;28;20207;-70
2021/11/24 10:49:38;;;;;;;7.30;4.80;;;;;;;7.78;82.09;101565.16;5027054;28;20253;-71
2021/11/24 10:52:17;;;;;;;6.20;3.50;;;;;;;7.80;81.98;101565.97;5043496;28;20209;-70
2021/11/24 10:54:45;;;;;;;10.33;7.90;;;;;;;7.80;81.56;101559.81;5049815;28;20237;-71
2021/11/24 10:57:14;;;;;;;5.50;3.30;;;;;;;7.85;80.77;101552.53;5049156;28;20671;-70
2021/11/24 10:59:43;;;;;;;12.20;9.50;;;;;;;7.85;80.98;101550.75;5049855;28;20205;-71
2021/11/24 11:02:21;;;;;;;8.97;5.13;;;;;;;7.90;80.58;101550.56;5027736;28;20756;-71
2021/11/24 11:04:59;;;;;;;9.03;5.43;;;;;;;7.92;80.71;101548.72;5019397;28;20536;-70
2021/11/24 11:07:29;;;;;;;5.73;3.70;;;;;;;7.95;80.18;101553.91;5024970;28;20289;-70
2021/11/24 11:10:20;;;;;;;9.33;4.87;;;;;;;7.97;79.88;101544.09;5026365;28;20227;-70
2021/11/24 11:12:49;;;;;;;6.37;4.13;;;;;;;8.01;79.27;101537.78;5022865;28;20210;-70
2021/11/24 11:15:24;;;;;;;5.87;4.30;;;;;;;8.04;79.59;101542.09;5039524;28;20210;-71
2021/11/24 11:18:11;;;;;;;4.50;3.47;;;;;;;8.01;78.65;101522.72;5048659;28;20706;-70
2021/11/24 11:20:42;;;;;;;4.87;2.87;;;;;;;8.02;77.62;101524.44;5049564;28;20233;-71